createdAt,value
2017-11-06T00:00:28.330Z,0.00
2017-11-06T00:01:28.322Z,0.00
2017-11-06T00:02:28.313Z,0.00
2017-11-06T00:03:28.303Z,0.00
2017-11-06T00:04:28.300Z,0.00
2017-11-06T00:05:28.290Z,0.00
2017-11-06T00:06:28.283Z,0.00
2017-11-06T00:07:28.273Z,0.00
2017-11-06T00:08:28.264Z,0.00
2017-11-06T00:09:28.255Z,0.00
2017-11-06T00:10:28.247Z,0.00
2017-11-06T00:11:28.237Z,0.00
2017-11-06T00:12:28.224Z,0.00
2017-11-06T00:13:28.215Z,0.00
2017-11-06T00:14:28.206Z,0.00
2017-11-06T00:15:28.197Z,0.00
2017-11-06T00:16:28.187Z,0.00
2017-11-06T00:17:28.179Z,0.00
2017-11-06T00:18:28.170Z,0.00
2017-11-06T00:19:28.161Z,0.00
2017-11-06T00:20:28.155Z,0.00
2017-11-06T00:21:28.148Z,0.00
2017-11-06T00:22:28.138Z,0.00
2017-11-06T00:23:28.128Z,0.00
2017-11-06T00:24:28.120Z,0.00
2017-11-06T00:25:28.113Z,0.00
2017-11-06T00:26:28.102Z,0.00
2017-11-06T00:27:28.093Z,0.00
2017-11-06T00:28:28.080Z,0.00
2017-11-06T00:29:28.071Z,0.00
2017-11-06T00:30:28.063Z,0.00
2017-11-06T00:31:28.053Z,0.00
2017-11-06T00:32:28.044Z,0.00
2017-11-06T00:33:28.036Z,0.00
2017-11-06T00:34:28.026Z,0.00
2017-11-06T00:35:28.016Z,0.00
2017-11-06T00:36:28.012Z,0.00
2017-11-06T00:37:28.008Z,0.00
2017-11-06T00:38:27.994Z,0.00
2017-11-06T00:39:27.983Z,0.00
2017-11-06T00:40:27.976Z,0.00
2017-11-06T00:41:27.967Z,0.00
2017-11-06T00:42:27.958Z,0.00
2017-11-06T00:43:27.948Z,0.00
2017-11-06T00:44:27.935Z,0.00
2017-11-06T00:45:27.927Z,0.00
2017-11-06T00:46:27.918Z,0.00
2017-11-06T00:47:27.906Z,0.00
2017-11-06T00:48:27.900Z,0.00
2017-11-06T00:49:27.890Z,0.00
2017-11-06T00:50:27.881Z,0.00
2017-11-06T00:51:27.870Z,0.00
2017-11-06T00:52:27.867Z,0.00
2017-11-06T00:53:27.863Z,0.00
2017-11-06T00:54:27.848Z,0.00
2017-11-06T00:55:27.838Z,0.00
2017-11-06T00:56:27.829Z,0.00
2017-11-06T00:57:27.819Z,0.00
2017-11-06T00:58:27.813Z,0.00
2017-11-06T00:59:27.801Z,0.00
2017-11-06T01:00:27.787Z,0.00
2017-11-06T01:01:27.780Z,0.00
2017-11-06T01:02:27.769Z,0.00
2017-11-06T01:03:27.760Z,0.00
2017-11-06T01:04:27.751Z,0.00
2017-11-06T01:05:27.743Z,0.00
2017-11-06T01:06:27.734Z,0.00
2017-11-06T01:07:27.723Z,0.00
2017-11-06T01:08:27.717Z,0.00
2017-11-06T01:09:27.712Z,0.00
2017-11-06T01:10:27.705Z,0.00
2017-11-06T01:11:27.692Z,0.00
2017-11-06T01:12:27.682Z,0.00
2017-11-06T01:13:27.673Z,0.00
2017-11-06T01:14:27.664Z,0.00
2017-11-06T01:15:27.653Z,0.00
2017-11-06T01:16:27.639Z,0.00
2017-11-06T01:17:27.630Z,0.00
2017-11-06T01:18:27.621Z,0.00
2017-11-06T01:19:27.612Z,0.00
2017-11-06T01:20:27.602Z,0.00
2017-11-06T01:21:27.594Z,0.00
2017-11-06T01:22:27.585Z,0.00
2017-11-06T01:23:27.574Z,0.00
2017-11-06T01:24:27.569Z,0.00
2017-11-06T01:25:27.559Z,0.00
2017-11-06T01:26:27.552Z,0.00
2017-11-06T01:27:27.542Z,0.00
2017-11-06T01:28:27.532Z,0.00
2017-11-06T01:29:27.530Z,0.00
2017-11-06T01:30:27.513Z,0.00
2017-11-06T01:31:27.504Z,0.00
2017-11-06T01:32:27.490Z,0.00
2017-11-06T01:33:27.480Z,0.00
2017-11-06T01:34:27.471Z,0.00
2017-11-06T01:35:27.462Z,0.00
2017-11-06T01:36:27.456Z,0.00
2017-11-06T01:37:27.451Z,0.00
2017-11-06T01:38:27.440Z,0.00
2017-11-06T01:39:27.428Z,0.00
2017-11-06T01:40:27.414Z,0.00
2017-11-06T01:41:27.404Z,0.00
2017-11-06T01:42:27.408Z,0.00
2017-11-06T01:43:27.386Z,0.00
2017-11-06T01:44:27.376Z,0.00
2017-11-06T01:45:27.368Z,0.00
2017-11-06T01:46:27.360Z,0.00
2017-11-06T01:47:27.349Z,0.00
2017-11-06T01:48:27.370Z,0.00
2017-11-06T01:49:27.335Z,0.00
2017-11-06T01:50:27.325Z,0.00
2017-11-06T01:51:27.315Z,0.00
2017-11-06T01:52:27.306Z,0.00
2017-11-06T01:53:27.297Z,0.00
2017-11-06T01:54:27.287Z,0.00
2017-11-06T01:55:27.277Z,0.00
2017-11-06T01:56:27.264Z,0.00
2017-11-06T01:57:27.257Z,0.00
2017-11-06T01:58:27.246Z,0.00
2017-11-06T01:59:27.240Z,0.00
2017-11-06T02:00:27.228Z,0.00
2017-11-06T02:01:27.217Z,0.00
2017-11-06T02:02:27.208Z,0.00
2017-11-06T02:03:27.198Z,0.00
2017-11-06T02:04:27.195Z,0.00
2017-11-06T02:05:27.184Z,0.00
2017-11-06T02:06:27.176Z,0.00
2017-11-06T02:07:27.166Z,0.00
2017-11-06T02:08:27.155Z,0.00
2017-11-06T02:09:27.146Z,0.00
2017-11-06T02:10:27.138Z,0.00
2017-11-06T02:11:27.127Z,0.00
2017-11-06T02:12:27.114Z,0.00
2017-11-06T02:13:27.105Z,0.00
2017-11-06T02:14:27.096Z,0.00
2017-11-06T02:15:27.085Z,0.00
2017-11-06T02:16:27.075Z,0.00
2017-11-06T02:17:27.067Z,0.00
2017-11-06T02:18:27.061Z,0.00
2017-11-06T02:19:27.047Z,0.00
2017-11-06T02:20:27.041Z,0.00
2017-11-06T02:21:27.034Z,0.00
2017-11-06T02:22:27.023Z,0.00
2017-11-06T02:23:27.014Z,0.00
2017-11-06T02:24:27.010Z,0.00
2017-11-06T02:25:26.996Z,0.00
2017-11-06T02:26:26.987Z,0.00
2017-11-06T02:27:26.976Z,0.00
2017-11-06T02:28:26.964Z,0.00
2017-11-06T02:29:26.952Z,0.00
2017-11-06T02:30:26.946Z,0.00
2017-11-06T02:31:26.935Z,0.00
2017-11-06T02:32:26.924Z,0.00
2017-11-06T02:33:26.916Z,0.00
2017-11-06T02:34:26.907Z,0.00
2017-11-06T02:35:26.897Z,0.00
2017-11-06T02:36:26.891Z,0.00
2017-11-06T02:37:26.883Z,0.00
2017-11-06T02:38:26.874Z,0.00
2017-11-06T02:39:26.868Z,0.00
2017-11-06T02:40:26.853Z,0.00
2017-11-06T02:41:26.841Z,0.00
2017-11-06T02:42:26.831Z,0.00
2017-11-06T02:43:26.822Z,0.00
2017-11-06T02:44:26.818Z,0.00
2017-11-06T02:45:26.808Z,0.00
2017-11-06T02:46:26.799Z,0.00
2017-11-06T02:47:26.790Z,0.00
2017-11-06T02:48:26.780Z,0.00
2017-11-06T02:49:26.772Z,0.00
2017-11-06T02:50:26.762Z,0.00
2017-11-06T02:51:26.752Z,0.00
2017-11-06T02:52:26.739Z,0.00
2017-11-06T02:53:26.732Z,0.00
2017-11-06T02:54:26.724Z,0.00
2017-11-06T02:55:26.712Z,0.00
2017-11-06T02:56:26.703Z,0.00
2017-11-06T02:57:26.694Z,0.00
2017-11-06T02:58:26.702Z,0.00
2017-11-06T02:59:26.676Z,0.00
2017-11-06T03:00:26.673Z,0.00
2017-11-06T03:01:26.662Z,0.00
2017-11-06T03:02:26.653Z,0.00
2017-11-06T03:03:26.643Z,0.00
2017-11-06T03:04:26.635Z,0.00
2017-11-06T03:05:26.624Z,0.00
2017-11-06T03:06:26.616Z,0.00
2017-11-06T03:07:26.613Z,0.00
2017-11-06T03:08:26.594Z,0.00
2017-11-06T03:09:26.585Z,0.00
2017-11-06T03:10:26.577Z,0.00
2017-11-06T03:11:26.566Z,0.00
2017-11-06T03:12:26.558Z,0.00
2017-11-06T03:13:26.550Z,0.00
2017-11-06T03:14:26.541Z,0.00
2017-11-06T03:15:26.530Z,0.00
2017-11-06T03:16:26.525Z,0.00
2017-11-06T03:17:26.517Z,0.00
2017-11-06T03:18:26.508Z,0.00
2017-11-06T03:19:26.497Z,0.00
2017-11-06T03:20:26.490Z,0.00
2017-11-06T03:21:26.483Z,0.00
2017-11-06T03:22:26.472Z,0.00
2017-11-06T03:23:26.463Z,0.00
2017-11-06T03:24:26.449Z,0.00
2017-11-06T03:25:26.439Z,0.00
2017-11-06T03:26:26.432Z,0.00
2017-11-06T03:27:26.422Z,0.00
2017-11-06T03:28:26.412Z,0.00
2017-11-06T03:29:26.403Z,0.00
2017-11-06T03:30:26.435Z,0.00
2017-11-06T03:31:26.385Z,0.00
2017-11-06T03:32:26.380Z,0.00
2017-11-06T03:33:26.371Z,0.00
2017-11-06T03:34:26.362Z,0.00
2017-11-06T03:35:26.352Z,0.00
2017-11-06T03:36:26.343Z,0.00
2017-11-06T03:37:26.333Z,0.00
2017-11-06T03:38:26.326Z,0.00
2017-11-06T03:39:26.315Z,0.00
2017-11-06T03:40:26.302Z,0.00
2017-11-06T03:41:26.292Z,0.00
2017-11-06T03:42:26.283Z,0.00
2017-11-06T03:43:26.273Z,0.00
2017-11-06T03:44:26.268Z,0.00
2017-11-06T03:45:26.261Z,0.00
2017-11-06T03:46:26.250Z,0.00
2017-11-06T03:47:26.238Z,0.00
2017-11-06T03:48:26.227Z,0.00
2017-11-06T03:49:26.219Z,0.00
2017-11-06T03:50:26.208Z,0.00
2017-11-06T03:51:26.198Z,0.00
2017-11-06T03:52:26.190Z,0.00
2017-11-06T03:53:26.182Z,0.00
2017-11-06T03:54:26.173Z,0.00
2017-11-06T03:55:26.162Z,0.00
2017-11-06T03:56:26.157Z,0.00
2017-11-06T03:57:26.147Z,0.00
2017-11-06T03:58:26.138Z,0.00
2017-11-06T03:59:26.128Z,0.00
2017-11-06T04:00:26.119Z,0.00
2017-11-06T04:01:26.111Z,0.00
2017-11-06T04:02:26.102Z,0.00
2017-11-06T04:03:26.093Z,0.00
2017-11-06T04:04:26.079Z,0.00
2017-11-06T04:05:26.070Z,0.00
2017-11-06T04:06:26.061Z,0.00
2017-11-06T04:07:26.050Z,0.00
2017-11-06T04:08:26.042Z,0.00
2017-11-06T04:09:26.033Z,0.00
2017-11-06T04:10:26.022Z,0.00
2017-11-06T04:11:26.020Z,0.00
2017-11-06T04:12:26.009Z,0.00
2017-11-06T04:13:25.998Z,0.00
2017-11-06T04:14:25.995Z,0.00
2017-11-06T04:15:25.980Z,0.00
2017-11-06T04:16:25.970Z,0.00
2017-11-06T04:17:25.962Z,0.00
2017-11-06T04:18:25.952Z,0.00
2017-11-06T04:19:25.943Z,0.00
2017-11-06T04:20:25.929Z,0.00
2017-11-06T04:21:25.921Z,0.00
2017-11-06T04:22:25.912Z,0.00
2017-11-06T04:23:25.901Z,0.00
2017-11-06T04:24:25.893Z,0.00
2017-11-06T04:25:25.883Z,0.00
2017-11-06T04:26:25.874Z,0.00
2017-11-06T04:27:25.864Z,0.00
2017-11-06T04:28:25.860Z,0.00
2017-11-06T04:29:25.852Z,0.00
2017-11-06T04:30:25.842Z,0.00
2017-11-06T04:31:25.831Z,0.00
2017-11-06T04:32:25.822Z,0.00
2017-11-06T04:33:25.816Z,0.00
2017-11-06T04:34:25.805Z,0.00
2017-11-06T04:35:25.796Z,0.00
2017-11-06T04:36:25.782Z,0.00
2017-11-06T04:37:25.774Z,0.00
2017-11-06T04:38:25.765Z,0.00
2017-11-06T04:39:25.756Z,0.00
2017-11-06T04:40:25.748Z,0.00
2017-11-06T04:41:25.737Z,0.00
2017-11-06T04:42:25.730Z,0.00
2017-11-06T04:43:25.720Z,0.00
2017-11-06T04:44:25.714Z,0.00
2017-11-06T04:45:25.707Z,0.00
2017-11-06T04:46:25.696Z,0.00
2017-11-06T04:47:25.688Z,0.00
2017-11-06T04:48:25.679Z,0.00
2017-11-06T04:49:25.670Z,0.00
2017-11-06T04:50:25.663Z,0.00
2017-11-06T04:51:25.651Z,0.00
2017-11-06T04:52:25.639Z,0.00
2017-11-06T04:53:25.637Z,0.00
2017-11-06T04:54:25.622Z,0.00
2017-11-06T04:55:25.611Z,0.00
2017-11-06T04:56:25.604Z,0.00
2017-11-06T04:57:25.594Z,0.00
2017-11-06T04:58:25.586Z,0.00
2017-11-06T04:59:25.576Z,0.00
2017-11-06T05:00:25.571Z,0.00
2017-11-06T05:01:25.565Z,0.00
2017-11-06T05:02:25.554Z,0.00
2017-11-06T05:03:25.545Z,0.00
2017-11-06T05:04:25.538Z,0.00
2017-11-06T05:05:25.528Z,0.00
2017-11-06T05:06:25.520Z,0.00
2017-11-06T05:07:25.509Z,0.00
2017-11-06T05:08:25.498Z,0.00
2017-11-06T05:09:25.488Z,0.00
2017-11-06T05:10:25.479Z,0.00
2017-11-06T05:11:25.468Z,0.00
2017-11-06T05:12:25.461Z,0.00
2017-11-06T05:13:25.458Z,0.00
2017-11-06T05:14:25.444Z,0.00
2017-11-06T05:15:25.434Z,0.00
2017-11-06T05:16:25.430Z,0.00
2017-11-06T05:17:25.419Z,0.00
2017-11-06T05:18:25.436Z,0.00
2017-11-06T05:19:25.403Z,0.00
2017-11-06T05:20:25.394Z,0.00
2017-11-06T05:21:25.386Z,0.00
2017-11-06T05:22:25.376Z,0.00
2017-11-06T05:23:25.368Z,0.00
2017-11-06T05:24:25.353Z,0.00
2017-11-06T05:25:25.345Z,0.00
2017-11-06T05:26:25.337Z,0.00
2017-11-06T05:27:25.327Z,0.00
2017-11-06T05:28:25.317Z,0.00
2017-11-06T05:29:25.310Z,0.00
2017-11-06T05:30:25.302Z,0.00
2017-11-06T05:31:25.291Z,0.00
2017-11-06T05:32:25.289Z,0.00
2017-11-06T05:33:25.279Z,0.00
2017-11-06T05:34:25.270Z,0.00
2017-11-06T05:35:25.260Z,0.00
2017-11-06T05:36:25.252Z,0.00
2017-11-06T05:37:25.266Z,0.00
2017-11-06T05:38:25.235Z,0.00
2017-11-06T05:39:25.226Z,0.00
2017-11-06T05:40:25.212Z,0.00
2017-11-06T05:41:25.205Z,0.00
2017-11-06T05:42:25.197Z,0.00
2017-11-06T05:43:25.188Z,0.00
2017-11-06T05:44:25.196Z,0.00
2017-11-06T05:45:25.170Z,0.00
2017-11-06T05:46:25.162Z,0.00
2017-11-06T05:47:25.153Z,0.00
2017-11-06T05:48:25.149Z,0.00
2017-11-06T05:49:25.141Z,0.00
2017-11-06T05:50:25.133Z,0.00
2017-11-06T05:51:25.123Z,0.00
2017-11-06T05:52:25.110Z,0.00
2017-11-06T05:53:25.102Z,0.00
2017-11-06T05:54:25.093Z,0.00
2017-11-06T05:55:25.087Z,0.00
2017-11-06T05:56:25.081Z,0.00
2017-11-06T05:57:25.072Z,0.00
2017-11-06T05:58:25.064Z,0.00
2017-11-06T05:59:25.054Z,0.00
2017-11-06T06:00:25.048Z,0.00
2017-11-06T06:01:25.039Z,0.00
2017-11-06T06:02:25.030Z,0.00
2017-11-06T06:03:25.021Z,0.00
2017-11-06T06:04:25.009Z,0.00
2017-11-06T06:05:25.001Z,0.00
2017-11-06T06:06:24.993Z,4.00
2017-11-06T06:07:24.984Z,4.00
2017-11-06T06:08:24.975Z,0.00
2017-11-06T06:09:24.968Z,4.00
2017-11-06T06:10:24.959Z,4.00
2017-11-06T06:11:24.949Z,4.00
2017-11-06T06:12:24.947Z,8.00
2017-11-06T06:13:24.939Z,8.00
2017-11-06T06:14:24.932Z,12.00
2017-11-06T06:15:24.922Z,8.00
2017-11-06T06:16:24.913Z,12.00
2017-11-06T06:17:24.905Z,8.00
2017-11-06T06:18:24.898Z,12.00
2017-11-06T06:19:24.889Z,12.00
2017-11-06T06:20:24.876Z,16.00
2017-11-06T06:21:24.868Z,20.00
2017-11-06T06:22:24.861Z,24.00
2017-11-06T06:23:24.852Z,28.00
2017-11-06T06:24:24.843Z,28.00
2017-11-06T06:25:24.836Z,40.00
2017-11-06T06:26:24.827Z,44.00
2017-11-06T06:27:24.817Z,56.00
2017-11-06T06:28:24.815Z,68.00
2017-11-06T06:29:24.807Z,80.00
2017-11-06T06:30:24.799Z,96.00
2017-11-06T06:31:24.791Z,104.00
2017-11-06T06:32:24.782Z,112.00
2017-11-06T06:33:24.775Z,124.00
2017-11-06T06:34:24.771Z,136.00
2017-11-06T06:35:24.761Z,152.00
2017-11-06T06:36:24.745Z,164.00
2017-11-06T06:37:24.737Z,176.00
2017-11-06T06:38:24.729Z,188.00
2017-11-06T06:39:24.721Z,192.00
2017-11-06T06:40:24.718Z,196.00
2017-11-06T06:41:24.720Z,204.00
2017-11-06T06:42:24.697Z,208.00
2017-11-06T06:43:24.689Z,212.00
2017-11-06T06:44:24.684Z,232.00
2017-11-06T06:45:24.677Z,256.00
2017-11-06T06:46:24.667Z,276.00
2017-11-06T06:47:24.663Z,296.00
2017-11-06T06:48:24.657Z,316.00
2017-11-06T06:49:24.647Z,348.00
2017-11-06T06:50:24.636Z,376.00
2017-11-06T06:51:24.627Z,396.00
2017-11-06T06:52:24.615Z,412.00
2017-11-06T06:53:24.608Z,428.00
2017-11-06T06:54:24.601Z,436.00
2017-11-06T06:55:24.592Z,440.00
2017-11-06T06:56:24.586Z,436.00
2017-11-06T06:57:24.579Z,452.00
2017-11-06T06:58:24.572Z,488.00
2017-11-06T06:59:24.562Z,532.00
2017-11-06T07:00:24.551Z,572.00
2017-11-06T07:01:24.545Z,632.00
2017-11-06T07:02:24.535Z,704.00
2017-11-06T07:03:24.530Z,760.00
2017-11-06T07:04:24.518Z,788.00
2017-11-06T07:05:24.512Z,796.00
2017-11-06T07:06:24.503Z,844.00
2017-11-06T07:07:24.496Z,948.00
2017-11-06T07:08:24.491Z,1040.00
2017-11-06T07:09:24.483Z,1016.00
2017-11-06T07:10:24.476Z,936.00
2017-11-06T07:11:24.468Z,956.00
2017-11-06T07:12:24.460Z,1044.00
2017-11-06T07:13:24.451Z,1060.00
2017-11-06T07:14:24.444Z,1012.00
2017-11-06T07:15:24.436Z,948.00
2017-11-06T07:16:24.424Z,896.00
2017-11-06T07:17:24.417Z,880.00
2017-11-06T07:18:24.409Z,884.00
2017-11-06T07:19:24.401Z,884.00
2017-11-06T07:20:24.392Z,900.00
2017-11-06T07:21:24.404Z,916.00
2017-11-06T07:22:24.379Z,936.00
2017-11-06T07:23:24.370Z,948.00
2017-11-06T07:24:24.367Z,984.00
2017-11-06T07:25:24.358Z,1048.00
2017-11-06T07:26:24.350Z,1128.00
2017-11-06T07:27:24.347Z,1204.00
2017-11-06T07:28:24.335Z,1380.00
2017-11-06T07:29:24.328Z,1740.00
2017-11-06T07:30:24.321Z,2132.00
2017-11-06T07:31:24.312Z,2384.00
2017-11-06T07:32:24.300Z,2416.00
2017-11-06T07:33:24.295Z,2316.00
2017-11-06T07:34:24.294Z,2144.00
2017-11-06T07:35:24.278Z,2052.00
2017-11-06T07:36:24.270Z,2064.00
2017-11-06T07:37:24.263Z,2120.00
2017-11-06T07:38:24.256Z,2124.00
2017-11-06T07:39:24.247Z,2060.00
2017-11-06T07:40:24.246Z,2012.00
2017-11-06T07:41:24.237Z,2104.00
2017-11-06T07:42:24.230Z,2292.00
2017-11-06T07:43:24.221Z,2372.00
2017-11-06T07:44:24.213Z,2364.00
2017-11-06T07:45:24.211Z,2364.00
2017-11-06T07:46:24.200Z,2340.00
2017-11-06T07:47:24.193Z,2232.00
2017-11-06T07:48:24.181Z,2252.00
2017-11-06T07:49:24.174Z,2284.00
2017-11-06T07:50:24.166Z,2460.00
2017-11-06T07:51:24.157Z,2796.00
2017-11-06T07:52:24.150Z,3200.00
2017-11-06T07:53:24.146Z,3436.00
2017-11-06T07:54:24.137Z,3316.00
2017-11-06T07:55:24.130Z,3120.00
2017-11-06T07:56:24.126Z,2864.00
2017-11-06T07:57:24.119Z,2828.00
2017-11-06T07:58:24.112Z,2908.00
2017-11-06T07:59:24.103Z,3148.00
2017-11-06T08:00:24.092Z,3772.00
2017-11-06T08:01:24.085Z,4080.00
2017-11-06T08:02:24.077Z,3976.00
2017-11-06T08:03:24.072Z,4076.00
2017-11-06T08:04:24.068Z,4520.00
2017-11-06T08:05:24.061Z,5436.00
2017-11-06T08:06:24.058Z,6052.00
2017-11-06T08:07:24.044Z,6244.00
2017-11-06T08:08:24.038Z,6748.00
2017-11-06T08:09:24.032Z,7492.00
2017-11-06T08:10:24.026Z,7244.00
2017-11-06T08:11:24.018Z,7144.00
2017-11-06T08:12:24.007Z,8248.00
2017-11-06T08:13:24.003Z,10900.00
2017-11-06T08:14:23.996Z,16192.00
2017-11-06T08:15:23.987Z,16992.00
2017-11-06T08:16:23.986Z,17664.00
2017-11-06T08:17:23.975Z,18304.00
2017-11-06T08:18:23.973Z,18560.00
2017-11-06T08:19:23.962Z,18176.00
2017-11-06T08:20:23.964Z,18016.00
2017-11-06T08:21:23.958Z,17952.00
2017-11-06T08:22:23.953Z,18080.00
2017-11-06T08:23:23.949Z,17504.00
2017-11-06T08:24:23.945Z,15648.00
2017-11-06T08:25:23.944Z,16704.00
2017-11-06T08:26:23.942Z,10788.00
2017-11-06T08:27:23.938Z,11416.00
2017-11-06T08:28:23.930Z,10316.00
2017-11-06T08:29:23.929Z,8368.00
2017-11-06T08:30:23.928Z,8340.00
2017-11-06T08:31:23.927Z,8356.00
2017-11-06T08:32:23.925Z,8100.00
2017-11-06T08:33:23.956Z,7988.00
2017-11-06T08:34:23.924Z,8672.00
2017-11-06T08:35:23.923Z,9044.00
2017-11-06T08:36:23.926Z,12428.00
2017-11-06T08:37:23.925Z,11860.00
2017-11-06T08:38:23.924Z,8336.00
2017-11-06T08:39:23.928Z,11008.00
2017-11-06T08:40:23.924Z,7880.00
2017-11-06T08:41:23.923Z,10856.00
2017-11-06T08:42:23.924Z,8472.00
2017-11-06T08:43:23.922Z,6012.00
2017-11-06T08:44:23.919Z,5868.00
2017-11-06T08:45:23.919Z,5528.00
2017-11-06T08:46:23.918Z,5204.00
2017-11-06T08:47:23.918Z,5328.00
2017-11-06T08:48:23.923Z,5500.00
2017-11-06T08:49:23.920Z,5768.00
2017-11-06T08:50:23.921Z,5728.00
2017-11-06T08:51:23.919Z,5372.00
2017-11-06T08:52:23.921Z,5020.00
2017-11-06T08:53:23.922Z,4784.00
2017-11-06T08:54:23.924Z,4880.00
2017-11-06T08:55:23.928Z,5176.00
2017-11-06T08:56:23.919Z,5396.00
2017-11-06T08:57:23.918Z,5880.00
2017-11-06T08:58:23.918Z,6672.00
2017-11-06T08:59:23.917Z,6324.00
2017-11-06T09:00:23.919Z,6368.00
2017-11-06T09:01:23.911Z,6488.00
2017-11-06T09:02:23.909Z,6536.00
2017-11-06T09:03:23.907Z,6692.00
2017-11-06T09:04:23.905Z,6780.00
2017-11-06T09:05:23.904Z,6600.00
2017-11-06T09:06:23.903Z,6496.00
2017-11-06T09:07:23.900Z,6796.00
2017-11-06T09:08:23.903Z,7276.00
2017-11-06T09:09:23.903Z,6680.00
2017-11-06T09:10:23.900Z,6824.00
2017-11-06T09:11:23.898Z,8492.00
2017-11-06T09:12:23.897Z,8016.00
2017-11-06T09:13:23.895Z,8040.00
2017-11-06T09:14:23.892Z,7780.00
2017-11-06T09:15:23.890Z,7420.00
2017-11-06T09:16:23.884Z,6492.00
2017-11-06T09:17:23.882Z,6244.00
2017-11-06T09:18:23.883Z,6240.00
2017-11-06T09:19:23.878Z,6940.00
2017-11-06T09:20:23.880Z,7620.00
2017-11-06T09:21:23.876Z,7824.00
2017-11-06T09:22:23.874Z,7780.00
2017-11-06T09:23:23.872Z,7416.00
2017-11-06T09:24:23.875Z,6684.00
2017-11-06T09:25:23.874Z,6776.00
2017-11-06T09:26:23.871Z,6788.00
2017-11-06T09:27:23.872Z,9268.00
2017-11-06T09:28:23.866Z,7064.00
2017-11-06T09:29:23.870Z,11208.00
2017-11-06T09:30:23.865Z,7672.00
2017-11-06T09:31:23.862Z,10064.00
2017-11-06T09:32:23.856Z,6308.00
2017-11-06T09:33:23.855Z,11480.00
2017-11-06T09:34:23.855Z,8780.00
2017-11-06T09:35:23.852Z,10596.00
2017-11-06T09:36:23.851Z,13028.00
2017-11-06T09:37:23.850Z,9920.00
2017-11-06T09:38:23.848Z,13384.00
2017-11-06T09:39:23.847Z,12212.00
2017-11-06T09:40:23.852Z,13432.00
2017-11-06T09:41:23.853Z,13352.00
2017-11-06T09:42:23.851Z,14276.00
2017-11-06T09:43:23.851Z,13732.00
2017-11-06T09:44:23.853Z,15008.00
2017-11-06T09:45:23.853Z,15072.00
2017-11-06T09:46:23.854Z,13568.00
2017-11-06T09:47:23.860Z,13376.00
2017-11-06T09:48:23.854Z,13312.00
2017-11-06T09:49:23.855Z,13436.00
2017-11-06T09:50:23.858Z,13744.00
2017-11-06T09:51:23.859Z,13400.00
2017-11-06T09:52:23.862Z,13040.00
2017-11-06T09:53:23.865Z,13192.00
2017-11-06T09:54:23.868Z,15232.00
2017-11-06T09:55:23.872Z,15328.00
2017-11-06T09:56:23.881Z,15168.00
2017-11-06T09:57:23.883Z,15392.00
2017-11-06T09:58:23.896Z,14912.00
2017-11-06T09:59:23.892Z,15872.00
2017-11-06T10:00:23.895Z,17472.00
2017-11-06T10:01:23.902Z,17376.00
2017-11-06T10:02:23.906Z,15488.00
2017-11-06T10:03:23.910Z,14104.00
2017-11-06T10:04:23.913Z,15072.00
2017-11-06T10:05:23.918Z,17376.00
2017-11-06T10:06:23.925Z,17952.00
2017-11-06T10:07:23.930Z,15328.00
2017-11-06T10:08:23.940Z,14720.00
2017-11-06T10:09:23.945Z,19136.00
2017-11-06T10:10:23.953Z,25344.00
2017-11-06T10:11:23.956Z,25664.00
2017-11-06T10:12:23.960Z,23232.00
2017-11-06T10:13:23.967Z,21472.00
2017-11-06T10:14:23.973Z,19616.00
2017-11-06T10:15:23.977Z,13712.00
2017-11-06T10:16:23.992Z,12500.00
2017-11-06T10:17:23.991Z,13228.00
2017-11-06T10:18:23.997Z,13076.00
2017-11-06T10:19:24.004Z,13556.00
2017-11-06T10:20:24.015Z,11556.00
2017-11-06T10:21:24.022Z,11696.00
2017-11-06T10:22:24.029Z,13968.00
2017-11-06T10:23:24.034Z,13684.00
2017-11-06T10:24:24.044Z,13484.00
2017-11-06T10:25:24.049Z,13712.00
2017-11-06T10:26:24.060Z,13344.00
2017-11-06T10:27:24.061Z,13164.00
2017-11-06T10:28:24.064Z,12796.00
2017-11-06T10:29:24.072Z,13244.00
2017-11-06T10:30:24.079Z,13104.00
2017-11-06T10:31:24.083Z,12792.00
2017-11-06T10:32:24.090Z,12044.00
2017-11-06T10:33:24.098Z,13040.00
2017-11-06T10:34:24.106Z,12924.00
2017-11-06T10:35:24.112Z,12992.00
2017-11-06T10:36:24.124Z,12880.00
2017-11-06T10:37:24.130Z,12668.00
2017-11-06T10:38:24.137Z,12556.00
2017-11-06T10:39:24.145Z,12472.00
2017-11-06T10:40:24.151Z,12488.00
2017-11-06T10:41:24.159Z,12372.00
2017-11-06T10:42:24.166Z,12744.00
2017-11-06T10:43:24.172Z,12844.00
2017-11-06T10:44:24.179Z,12884.00
2017-11-06T10:45:24.181Z,13152.00
2017-11-06T10:46:24.190Z,13000.00
2017-11-06T10:47:24.195Z,12956.00
2017-11-06T10:48:24.206Z,12696.00
2017-11-06T10:49:24.208Z,12684.00
2017-11-06T10:50:24.215Z,12628.00
2017-11-06T10:51:24.221Z,12704.00
2017-11-06T10:52:24.236Z,12972.00
2017-11-06T10:53:24.239Z,13292.00
2017-11-06T10:54:24.245Z,13476.00
2017-11-06T10:55:24.252Z,13752.00
2017-11-06T10:56:24.258Z,14096.00
2017-11-06T10:57:24.268Z,14848.00
2017-11-06T10:58:24.272Z,15840.00
2017-11-06T10:59:24.278Z,16096.00
2017-11-06T11:00:24.281Z,14376.00
2017-11-06T11:01:24.286Z,13268.00
2017-11-06T11:02:24.294Z,11904.00
2017-11-06T11:03:24.307Z,10404.00
2017-11-06T11:04:24.306Z,10360.00
2017-11-06T11:05:24.313Z,10180.00
2017-11-06T11:06:24.319Z,10356.00
2017-11-06T11:07:24.325Z,10936.00
2017-11-06T11:08:24.344Z,10580.00
2017-11-06T11:09:24.343Z,11136.00
2017-11-06T11:10:24.348Z,12060.00
2017-11-06T11:11:24.353Z,17632.00
2017-11-06T11:12:24.356Z,11836.00
2017-11-06T11:13:24.360Z,11428.00
2017-11-06T11:14:24.365Z,10364.00
2017-11-06T11:15:24.369Z,9716.00
2017-11-06T11:16:24.378Z,9480.00
2017-11-06T11:17:24.385Z,9076.00
2017-11-06T11:18:24.393Z,8336.00
2017-11-06T11:19:24.393Z,8016.00
2017-11-06T11:20:24.398Z,7796.00
2017-11-06T11:21:24.401Z,7492.00
2017-11-06T11:22:24.406Z,7356.00
2017-11-06T11:23:24.409Z,7240.00
2017-11-06T11:24:24.409Z,7072.00
2017-11-06T11:25:24.412Z,6956.00
2017-11-06T11:26:24.416Z,6908.00
2017-11-06T11:27:24.418Z,6832.00
2017-11-06T11:28:24.432Z,7000.00
2017-11-06T11:29:24.424Z,7180.00
2017-11-06T11:30:24.428Z,7112.00
2017-11-06T11:31:24.429Z,7028.00
2017-11-06T11:32:24.436Z,6792.00
2017-11-06T11:33:24.437Z,6672.00
2017-11-06T11:34:24.440Z,6664.00
2017-11-06T11:35:24.441Z,6772.00
2017-11-06T11:36:24.442Z,7048.00
2017-11-06T11:37:24.445Z,7536.00
2017-11-06T11:38:24.448Z,7744.00
2017-11-06T11:39:24.447Z,7484.00
2017-11-06T11:40:24.446Z,8032.00
2017-11-06T11:41:24.446Z,7452.00
2017-11-06T11:42:24.448Z,7000.00
2017-11-06T11:43:24.452Z,6920.00
2017-11-06T11:44:24.449Z,7176.00
2017-11-06T11:45:24.450Z,7080.00
2017-11-06T11:46:24.451Z,7040.00
2017-11-06T11:47:24.452Z,7184.00
2017-11-06T11:48:24.456Z,7360.00
2017-11-06T11:49:24.456Z,7372.00
2017-11-06T11:50:24.459Z,7280.00
2017-11-06T11:51:24.458Z,7072.00
2017-11-06T11:52:24.458Z,7004.00
2017-11-06T11:53:24.460Z,6936.00
2017-11-06T11:54:24.460Z,6988.00
2017-11-06T11:55:24.457Z,6680.00
2017-11-06T11:56:24.476Z,6476.00
2017-11-06T11:57:24.456Z,6348.00
2017-11-06T11:58:24.454Z,6128.00
2017-11-06T11:59:24.460Z,5920.00
2017-11-06T12:00:24.454Z,5864.00
2017-11-06T12:01:24.454Z,5980.00
2017-11-06T12:02:24.455Z,5984.00
2017-11-06T12:03:24.458Z,5920.00
2017-11-06T12:04:24.458Z,5948.00
2017-11-06T12:05:24.457Z,5840.00
2017-11-06T12:06:24.457Z,5756.00
2017-11-06T12:07:24.459Z,5784.00
2017-11-06T12:08:24.469Z,5748.00
2017-11-06T12:09:24.456Z,5536.00
2017-11-06T12:10:24.463Z,5360.00
2017-11-06T12:11:24.454Z,4784.00
2017-11-06T12:12:24.450Z,4368.00
2017-11-06T12:13:24.451Z,4048.00
2017-11-06T12:14:24.447Z,4208.00
2017-11-06T12:15:24.447Z,3696.00
2017-11-06T12:16:24.459Z,3684.00
2017-11-06T12:17:24.450Z,3424.00
2017-11-06T12:18:24.451Z,3344.00
2017-11-06T12:19:24.448Z,3188.00
2017-11-06T12:20:24.441Z,3012.00
2017-11-06T12:21:24.442Z,2856.00
2017-11-06T12:22:24.441Z,2804.00
2017-11-06T12:23:24.438Z,2844.00
2017-11-06T12:24:24.438Z,3044.00
2017-11-06T12:25:24.437Z,3064.00
2017-11-06T12:26:24.436Z,2956.00
2017-11-06T12:27:24.434Z,2832.00
2017-11-06T12:28:24.435Z,2648.00
2017-11-06T12:29:24.435Z,2672.00
2017-11-06T12:30:24.435Z,2740.00
2017-11-06T12:31:24.431Z,2788.00
2017-11-06T12:32:24.430Z,2796.00
2017-11-06T12:33:24.429Z,2804.00
2017-11-06T12:34:24.433Z,2668.00
2017-11-06T12:35:24.424Z,2520.00
2017-11-06T12:36:24.428Z,2424.00
2017-11-06T12:37:24.416Z,2492.00
2017-11-06T12:38:24.414Z,2660.00